createdAt,value
2022-11-22T00:00:40.572Z,22.97
2022-11-22T00:03:07.829Z,23.87
2022-11-22T00:05:34.858Z,23.40
2022-11-22T00:08:01.866Z,24.33
2022-11-22T00:10:28.883Z,23.17
2022-11-22T00:12:55.909Z,24.60
2022-11-22T00:15:22.832Z,23.73
2022-11-22T00:17:49.781Z,24.23
2022-11-22T00:20:16.753Z,23.23
2022-11-22T00:22:44.902Z,24.63
2022-11-22T00:25:12.547Z,24.20
2022-11-22T00:27:39.425Z,24.20
2022-11-22T00:30:09.939Z,24.33
2022-11-22T00:32:37.120Z,24.13
2022-11-22T00:35:04.722Z,24.27
2022-11-22T00:37:34.539Z,24.70
2022-11-22T00:40:02.334Z,25.37
2022-11-22T00:42:29.289Z,24.07
2022-11-22T00:44:56.176Z,24.27
2022-11-22T00:47:23.033Z,24.97
2022-11-22T00:49:49.856Z,24.40
2022-11-22T00:52:16.757Z,23.50
2022-11-22T00:54:50.078Z,24.17
2022-11-22T00:57:20.152Z,24.30
2022-11-22T00:59:47.086Z,25.30
2022-11-22T01:02:13.948Z,25.70
2022-11-22T01:04:40.854Z,24.87
2022-11-22T01:07:07.794Z,25.10
2022-11-22T01:09:36.228Z,24.57
2022-11-22T01:12:03.240Z,25.67
2022-11-22T01:14:30.317Z,25.23
2022-11-22T01:16:57.232Z,25.50
2022-11-22T01:19:24.268Z,25.53
2022-11-22T01:21:51.235Z,26.30
2022-11-22T01:24:18.185Z,25.87
2022-11-22T01:26:45.311Z,26.43
2022-11-22T01:29:12.192Z,26.03
2022-11-22T01:31:39.084Z,25.93
2022-11-22T01:34:06.470Z,25.77
2022-11-22T01:36:33.442Z,26.50
2022-11-22T01:39:00.385Z,25.20
2022-11-22T01:41:27.450Z,25.77
2022-11-22T01:43:54.326Z,25.20
2022-11-22T01:46:35.049Z,26.00
2022-11-22T01:49:12.967Z,25.33
2022-11-22T01:51:46.279Z,25.83
2022-11-22T01:54:24.767Z,24.87
2022-11-22T01:56:59.184Z,25.17
2022-11-22T01:59:30.589Z,25.60
2022-11-22T02:01:58.946Z,25.93
2022-11-22T02:04:28.286Z,27.13
2022-11-22T02:07:04.033Z,26.47
2022-11-22T02:09:32.933Z,25.97
2022-11-22T02:12:02.367Z,26.00
2022-11-22T02:14:30.969Z,26.83
2022-11-22T02:16:58.022Z,25.63
2022-11-22T02:19:52.889Z,26.57
2022-11-22T02:22:46.034Z,26.03
2022-11-22T02:25:40.718Z,26.27
2022-11-22T02:28:16.227Z,26.73
2022-11-22T02:30:50.073Z,25.67
2022-11-22T02:33:18.965Z,26.47
2022-11-22T02:35:47.741Z,25.47
2022-11-22T02:38:24.943Z,27.40
2022-11-22T02:41:20.275Z,24.90
2022-11-22T02:43:49.102Z,26.53
2022-11-22T02:46:23.863Z,25.13
2022-11-22T02:48:55.556Z,25.23
2022-11-22T02:51:23.889Z,26.67
2022-11-22T02:53:57.647Z,26.60
2022-11-22T02:56:25.204Z,26.37
2022-11-22T02:58:53.038Z,27.47
2022-11-22T03:01:20.252Z,27.40
2022-11-22T03:03:47.642Z,26.30
2022-11-22T03:06:14.978Z,26.40
2022-11-22T03:08:45.673Z,26.60
2022-11-22T03:11:12.914Z,26.33
2022-11-22T03:13:40.390Z,27.97
2022-11-22T03:16:08.667Z,25.97
2022-11-22T03:18:38.476Z,26.10
2022-11-22T03:21:08.527Z,27.00
2022-11-22T03:23:36.522Z,26.10
2022-11-22T03:26:12.208Z,26.13
2022-11-22T03:28:39.243Z,27.87
2022-11-22T03:31:07.369Z,27.40
2022-11-22T03:33:35.699Z,26.87
2022-11-22T03:36:03.911Z,26.17
2022-11-22T03:38:31.012Z,27.10
2022-11-22T03:40:58.051Z,26.57
2022-11-22T03:43:24.954Z,26.47
2022-11-22T03:45:52.065Z,26.37
2022-11-22T03:48:19.274Z,27.43
2022-11-22T03:50:46.507Z,26.83
2022-11-22T03:53:13.532Z,27.40
2022-11-22T03:55:41.273Z,26.20
2022-11-22T03:58:10.910Z,25.30
2022-11-22T04:00:37.789Z,26.20
2022-11-22T04:03:04.627Z,26.37
2022-11-22T04:05:32.534Z,28.07
2022-11-22T04:07:59.404Z,26.73
2022-11-22T04:10:26.635Z,26.53
2022-11-22T04:12:58.658Z,25.83
2022-11-22T04:15:30.034Z,24.80
2022-11-22T04:17:57.085Z,25.70
2022-11-22T04:20:45.675Z,25.00
2022-11-22T04:23:15.891Z,24.27
2022-11-22T04:25:56.866Z,26.53
2022-11-22T04:29:01.967Z,26.13
2022-11-22T04:31:35.300Z,25.83
2022-11-22T04:34:02.273Z,25.87
2022-11-22T04:36:29.240Z,24.43
2022-11-22T04:38:57.447Z,26.47
2022-11-22T04:41:24.341Z,24.63
2022-11-22T04:44:11.944Z,25.43
2022-11-22T04:46:38.895Z,25.73
2022-11-22T04:49:05.847Z,26.20
2022-11-22T04:51:52.335Z,25.27
2022-11-22T04:54:19.321Z,24.70
2022-11-22T04:56:46.328Z,25.30
2022-11-22T04:59:13.285Z,25.20
2022-11-22T05:01:40.552Z,26.00
2022-11-22T05:04:07.522Z,25.67
2022-11-22T05:06:34.420Z,24.93
2022-11-22T05:09:01.357Z,24.63
2022-11-22T05:11:28.345Z,24.73
2022-11-22T05:14:03.928Z,26.27
2022-11-22T05:16:30.802Z,26.07
2022-11-22T05:19:03.781Z,24.83
2022-11-22T05:21:30.948Z,25.47
2022-11-22T05:23:57.961Z,26.40
2022-11-22T05:26:30.788Z,26.93
2022-11-22T05:28:58.319Z,26.57
2022-11-22T05:31:27.756Z,27.33
2022-11-22T05:33:57.201Z,26.33
2022-11-22T05:36:25.458Z,25.87
2022-11-22T05:38:53.380Z,26.93
2022-11-22T05:41:20.846Z,26.63
2022-11-22T05:43:50.971Z,27.23
2022-11-22T05:46:24.843Z,27.60
2022-11-22T05:48:54.216Z,27.03
2022-11-22T05:51:26.038Z,26.90
2022-11-22T05:53:55.338Z,26.93
2022-11-22T05:56:24.186Z,26.60
2022-11-22T05:58:52.526Z,27.57
2022-11-22T06:01:24.646Z,29.47
2022-11-22T06:03:52.587Z,27.93
2022-11-22T06:06:19.988Z,27.40
2022-11-22T06:08:48.874Z,29.23
2022-11-22T06:11:23.205Z,27.83
2022-11-22T06:14:05.355Z,28.87
2022-11-22T06:16:32.479Z,27.50
2022-11-22T06:18:59.595Z,27.73
2022-11-22T06:21:38.359Z,28.27
2022-11-22T06:24:08.652Z,28.10
2022-11-22T06:26:39.432Z,27.77
2022-11-22T06:29:10.953Z,26.97
2022-11-22T06:31:37.997Z,27.77
2022-11-22T06:34:05.480Z,27.87
2022-11-22T06:36:34.181Z,30.73
2022-11-22T06:39:03.829Z,30.13
2022-11-22T06:41:36.077Z,29.53
2022-11-22T06:44:08.429Z,28.97
2022-11-22T06:46:36.450Z,29.20
2022-11-22T06:49:03.894Z,29.23
2022-11-22T06:51:32.168Z,29.10
2022-11-22T06:53:59.333Z,28.20
2022-11-22T06:56:33.315Z,28.90
2022-11-22T06:59:03.879Z,29.33
2022-11-22T07:01:32.454Z,28.33
2022-11-22T07:04:00.555Z,28.27
2022-11-22T07:06:32.566Z,28.77
2022-11-22T07:09:00.828Z,28.53
2022-11-22T07:11:29.892Z,28.77
2022-11-22T07:14:04.998Z,29.93
2022-11-22T07:16:35.483Z,27.93
2022-11-22T07:19:02.348Z,28.30
2022-11-22T07:21:29.241Z,29.57
2022-11-22T07:23:56.362Z,29.03
2022-11-22T07:26:26.284Z,30.00
2022-11-22T07:28:53.095Z,29.73
2022-11-22T07:31:20.429Z,30.27
2022-11-22T07:33:47.721Z,29.17
2022-11-22T07:36:20.167Z,29.40
2022-11-22T07:38:48.496Z,29.10
2022-11-22T07:41:16.834Z,30.07
2022-11-22T07:43:43.887Z,29.20
2022-11-22T07:46:29.292Z,30.03
2022-11-22T07:48:56.281Z,30.37
2022-11-22T07:51:23.630Z,29.03
2022-11-22T07:53:51.462Z,30.10
2022-11-22T07:56:18.446Z,29.80
2022-11-22T07:58:45.389Z,29.33
2022-11-22T08:01:14.792Z,30.40
2022-11-22T08:03:43.450Z,30.27
2022-11-22T08:06:12.228Z,30.13
2022-11-22T08:08:39.529Z,32.13
2022-11-22T08:11:07.204Z,30.33
2022-11-22T08:13:34.225Z,30.03
2022-11-22T08:16:06.718Z,30.20
2022-11-22T08:18:34.994Z,32.73
2022-11-22T08:21:05.168Z,31.70
2022-11-22T08:23:32.422Z,31.30
2022-11-22T08:26:00.390Z,31.97
2022-11-22T08:28:27.529Z,30.47
2022-11-22T08:31:15.936Z,32.57
2022-11-22T08:33:42.874Z,31.73
2022-11-22T08:36:10.081Z,33.13
2022-11-22T08:38:37.294Z,33.87
2022-11-22T08:41:05.729Z,32.43
2022-11-22T08:43:35.965Z,32.33
2022-11-22T08:46:06.564Z,32.87
2022-11-22T08:48:35.271Z,33.13
2022-11-22T08:51:07.795Z,34.20
2022-11-22T08:53:40.596Z,31.13
2022-11-22T08:56:10.428Z,30.73
2022-11-22T08:58:38.130Z,31.37
2022-11-22T09:01:16.635Z,31.23
2022-11-22T09:03:44.975Z,30.23
2022-11-22T09:11:51.264Z,29.27
2022-11-22T09:14:18.078Z,30.40
2022-11-22T09:16:44.910Z,29.20
2022-11-22T09:19:11.825Z,29.40
2022-11-22T09:21:38.662Z,29.20
2022-11-22T09:24:05.907Z,29.90
2022-11-22T09:26:33.040Z,30.00
2022-11-22T09:28:59.886Z,31.07
2022-11-22T09:31:26.765Z,29.20
2022-11-22T09:33:53.638Z,29.50
2022-11-22T09:36:23.030Z,29.13
2022-11-22T09:38:51.111Z,31.20
2022-11-22T09:41:30.443Z,29.53
2022-11-22T09:44:22.145Z,30.50
2022-11-22T09:47:05.038Z,29.80
2022-11-22T09:49:57.878Z,30.33
2022-11-22T09:53:03.017Z,30.23
2022-11-22T09:55:44.289Z,28.20
2022-11-22T09:58:13.888Z,28.97
2022-11-22T10:00:44.432Z,29.40
2022-11-22T10:03:28.999Z,27.93
2022-11-22T10:06:00.377Z,28.43
2022-11-22T10:08:59.287Z,29.47
2022-11-22T10:11:47.853Z,28.60
2022-11-22T10:14:32.226Z,29.57
2022-11-22T10:17:29.801Z,29.30
2022-11-22T10:20:17.959Z,29.07
2022-11-22T10:22:45.230Z,27.50
2022-11-22T10:25:17.021Z,27.77
2022-11-22T10:27:52.279Z,27.20
2022-11-22T10:30:22.445Z,27.90
2022-11-22T10:32:55.085Z,27.37
2022-11-22T10:35:35.638Z,28.27
2022-11-22T10:38:26.617Z,27.40
2022-11-22T10:40:59.395Z,27.93
2022-11-22T10:43:56.635Z,27.20
2022-11-22T10:46:56.993Z,27.80
2022-11-22T10:49:58.127Z,26.10
2022-11-22T10:52:37.010Z,27.93
2022-11-22T10:55:06.883Z,28.10
2022-11-22T10:57:42.335Z,26.33
2022-11-22T11:00:21.984Z,27.40
2022-11-22T11:03:18.303Z,26.83
2022-11-22T11:09:23.500Z,26.07
2022-11-22T11:11:30.968Z,27.13
2022-11-22T11:14:04.223Z,27.00
2022-11-22T11:16:36.007Z,26.83
2022-11-22T11:19:19.899Z,27.30
2022-11-22T11:22:12.876Z,25.63
2022-11-22T11:24:42.046Z,26.03
2022-11-22T11:27:11.306Z,26.37
2022-11-22T11:29:48.455Z,25.63
2022-11-22T11:32:19.834Z,25.10
2022-11-22T11:34:56.945Z,24.77
2022-11-22T11:37:38.609Z,25.87
2022-11-22T11:40:24.992Z,26.60
2022-11-22T11:43:14.619Z,25.10
2022-11-22T11:45:41.708Z,25.97
2022-11-22T11:48:41.559Z,25.70
2022-11-22T11:51:08.487Z,25.30
2022-11-22T11:53:36.149Z,22.00
2022-11-22T11:56:41.198Z,22.93
2022-11-22T11:59:17.049Z,23.13
2022-11-22T12:01:55.154Z,24.33
2022-11-22T12:04:25.951Z,22.73
2022-11-22T12:07:02.913Z,22.33
2022-11-22T12:09:43.768Z,21.23
2022-11-22T12:12:20.912Z,20.00
2022-11-22T12:15:10.632Z,22.00
2022-11-22T12:17:54.825Z,20.13
2022-11-22T12:20:55.547Z,21.00
2022-11-22T12:23:50.891Z,19.97
2022-11-22T12:26:21.354Z,18.50
2022-11-22T12:28:48.795Z,20.13
2022-11-22T12:31:24.549Z,21.40
2022-11-22T12:33:55.200Z,22.47
2022-11-22T12:36:35.672Z,22.00
2022-11-22T12:39:04.393Z,23.43
2022-11-22T12:41:34.494Z,23.00
2022-11-22T12:44:10.710Z,22.20
2022-11-22T12:46:44.216Z,23.97
2022-11-22T12:49:21.916Z,22.33
2022-11-22T12:52:23.821Z,20.93
2022-11-22T12:55:04.965Z,22.30
2022-11-22T12:58:15.354Z,22.00
2022-11-22T13:00:54.281Z,20.27
2022-11-22T13:03:33.137Z,21.30
2022-11-22T13:06:03.543Z,20.13
2022-11-22T13:08:42.643Z,18.37
2022-11-22T13:11:14.574Z,18.70
2022-11-22T13:13:48.126Z,18.80
2022-11-22T13:16:15.210Z,19.10
2022-11-22T13:18:51.231Z,17.90
2022-11-22T13:21:26.887Z,16.30
2022-11-22T13:24:24.987Z,17.53
2022-11-22T13:27:03.618Z,17.60
2022-11-22T13:29:33.907Z,18.33
2022-11-22T13:32:23.716Z,16.40
2022-11-22T13:35:11.902Z,18.03
2022-11-22T13:37:42.624Z,18.90
2022-11-22T13:40:11.300Z,18.40
2022-11-22T13:42:38.271Z,17.70
2022-11-22T13:45:23.563Z,18.27
2022-11-22T13:47:51.287Z,19.20
2022-11-22T13:50:36.594Z,19.70
2022-11-22T13:53:26.831Z,18.17
2022-11-22T13:55:53.731Z,18.17
2022-11-22T13:58:26.916Z,18.10
2022-11-22T14:00:55.378Z,18.93
2022-11-22T14:03:41.625Z,18.57
2022-11-22T14:06:23.198Z,19.00
2022-11-22T14:09:09.986Z,18.70
2022-11-22T14:11:57.843Z,18.60
2022-11-22T14:15:09.277Z,18.40
2022-11-22T14:17:53.736Z,18.93
2022-11-22T14:20:32.624Z,18.77
2022-11-22T14:23:23.400Z,18.30
2022-11-22T14:26:45.224Z,19.70
2022-11-22T14:29:39.461Z,18.27
2022-11-22T14:32:23.900Z,19.23
2022-11-22T14:35:05.647Z,19.43
2022-11-22T14:37:34.986Z,20.67
2022-11-22T14:40:08.519Z,21.03
2022-11-22T14:42:37.857Z,19.83
2022-11-22T14:45:21.589Z,19.63
2022-11-22T14:47:52.763Z,19.63
2022-11-22T14:50:37.359Z,20.90
2022-11-22T14:53:24.471Z,20.50
2022-11-22T14:55:56.303Z,21.63
2022-11-22T14:58:28.126Z,21.63
2022-11-22T15:01:19.507Z,21.70
2022-11-22T15:09:10.831Z,22.43
2022-11-22T15:09:13.163Z,20.27
2022-11-22T15:10:14.450Z,19.43
2022-11-22T15:12:56.426Z,21.07
2022-11-22T15:59:44.717Z,17.70
2022-11-22T16:02:20.273Z,16.23
2022-11-22T16:06:03.488Z,18.40
2022-11-22T16:07:45.675Z,17.40
2022-11-22T16:10:23.173Z,18.03
2022-11-22T16:12:51.927Z,18.97
2022-11-22T16:15:28.986Z,18.27
2022-11-22T16:18:25.959Z,19.37
2022-11-22T16:21:01.507Z,18.43
2022-11-22T16:23:30.007Z,19.87
2022-11-22T16:26:17.143Z,18.07
2022-11-22T16:28:44.126Z,19.93
2022-11-22T16:31:19.979Z,19.73
2022-11-22T16:33:47.105Z,19.33
2022-11-22T16:36:15.540Z,19.33
2022-11-22T16:38:43.783Z,19.37
2022-11-22T16:41:20.103Z,19.60
2022-11-22T16:43:49.730Z,20.10
2022-11-22T16:46:17.409Z,20.67
2022-11-22T16:48:44.821Z,20.10
2022-11-22T16:51:23.137Z,21.20
2022-11-22T16:54:12.783Z,19.73
2022-11-22T16:56:43.120Z,19.90
2022-11-22T16:59:14.262Z,21.17
2022-11-22T17:01:46.456Z,20.50
2022-11-22T17:04:27.167Z,21.27
2022-11-22T17:06:54.937Z,21.03
2022-11-22T17:09:22.173Z,23.83
2022-11-22T17:11:50.115Z,22.80
2022-11-22T17:14:19.155Z,24.07
2022-11-22T17:16:46.573Z,22.07
2022-11-22T17:19:37.413Z,22.87
2022-11-22T17:22:01.190Z,23.00
2022-11-22T17:24:29.311Z,24.17
2022-11-22T17:27:02.445Z,22.43
2022-11-22T17:29:49.175Z,23.47
2022-11-22T17:32:16.834Z,24.73
2022-11-22T17:34:43.852Z,23.73
2022-11-22T17:37:13.824Z,22.97
2022-11-22T17:39:41.282Z,24.87
2022-11-22T17:42:09.579Z,23.57
2022-11-22T17:44:36.675Z,23.43
2022-11-22T17:47:03.822Z,22.37
2022-11-22T17:49:33.867Z,24.53
2022-11-22T17:52:03.968Z,22.57
2022-11-22T17:54:30.810Z,23.33
2022-11-22T17:57:00.991Z,22.33
2022-11-22T17:59:27.931Z,23.60
2022-11-22T18:01:54.960Z,22.50
2022-11-22T18:04:22.012Z,23.00
2022-11-22T18:06:49.225Z,23.47
2022-11-22T18:09:17.231Z,22.83
2022-11-22T18:11:44.810Z,24.47
2022-11-22T18:14:11.995Z,23.70
2022-11-22T18:16:38.874Z,23.97
2022-11-22T18:19:06.124Z,23.77
2022-11-22T18:21:34.039Z,24.30
2022-11-22T18:24:01.708Z,24.33
2022-11-22T18:26:39.455Z,24.00
2022-11-22T18:31:56.157Z,23.67
2022-11-22T18:34:23.424Z,22.73
2022-11-22T18:37:06.788Z,23.17
2022-11-22T18:39:38.020Z,22.40
2022-11-22T18:42:07.563Z,24.17
2022-11-22T18:44:34.947Z,23.10
2022-11-22T18:47:01.972Z,24.10
2022-11-22T18:49:31.069Z,23.83
2022-11-22T18:52:03.909Z,23.20
2022-11-22T18:54:31.345Z,22.87
2022-11-22T18:56:58.844Z,23.43
2022-11-22T18:59:27.350Z,25.37
2022-11-22T19:01:54.839Z,23.90
2022-11-22T19:04:21.952Z,23.93
2022-11-22T19:06:49.100Z,23.50
2022-11-22T19:09:16.387Z,25.00
2022-11-22T19:11:43.556Z,24.47
2022-11-22T19:14:14.465Z,24.90
2022-11-22T19:16:42.120Z,23.87
2022-11-22T19:19:12.232Z,25.23
2022-11-22T19:21:39.682Z,24.17
2022-11-22T19:24:06.998Z,23.90
2022-11-22T19:26:34.616Z,24.17
2022-11-22T19:29:02.708Z,23.97
2022-11-22T19:31:31.519Z,25.50
2022-11-22T19:33:59.956Z,24.70
2022-11-22T19:36:33.327Z,23.10
2022-11-22T19:39:02.746Z,23.93
2022-11-22T19:41:31.045Z,26.37
2022-11-22T19:43:58.277Z,26.20
2022-11-22T19:46:25.962Z,26.63
2022-11-22T19:48:54.996Z,26.23
2022-11-22T19:51:23.020Z,27.73
2022-11-22T19:53:53.790Z,25.83
2022-11-22T19:56:21.012Z,26.30
2022-11-22T19:58:53.175Z,25.43
2022-11-22T20:01:21.683Z,26.83
2022-11-22T20:03:52.898Z,26.43
2022-11-22T20:06:20.565Z,25.70
2022-11-22T20:08:47.487Z,27.17
2022-11-22T20:11:16.605Z,25.00
2022-11-22T20:13:46.520Z,25.70
2022-11-22T20:16:25.476Z,26.33
2022-11-22T20:18:57.110Z,26.03
2022-11-22T20:21:25.508Z,26.60
2022-11-22T20:23:53.164Z,26.23
2022-11-22T20:26:21.640Z,26.50
2022-11-22T20:28:56.854Z,26.30
2022-11-22T20:31:24.851Z,26.43
2022-11-22T20:33:53.171Z,26.33
2022-11-22T20:36:22.315Z,23.87
2022-11-22T20:38:50.009Z,25.47
2022-11-22T20:41:19.022Z,25.57
2022-11-22T20:43:46.229Z,25.83
2022-11-22T20:46:15.143Z,26.47
2022-11-22T20:48:44.276Z,26.93
2022-11-22T20:51:15.461Z,25.80
2022-11-22T20:53:43.464Z,27.07
2022-11-22T20:56:11.968Z,25.30
2022-11-22T20:58:39.309Z,26.13
2022-11-22T21:01:15.360Z,25.20
2022-11-22T21:03:42.628Z,26.47
2022-11-22T21:06:11.858Z,26.20
2022-11-22T21:08:39.048Z,25.57
2022-11-22T21:11:11.470Z,26.23
2022-11-22T21:13:39.835Z,26.37
2022-11-22T21:16:27.824Z,26.57
2022-11-22T21:19:02.662Z,25.83
2022-11-22T21:21:31.282Z,23.93
2022-11-22T21:24:00.202Z,25.57
2022-11-22T21:26:27.490Z,25.60
2022-11-22T21:28:55.059Z,25.33
2022-11-22T21:31:23.179Z,24.20
2022-11-22T21:33:50.808Z,24.90
2022-11-22T21:36:18.866Z,23.47
2022-11-22T21:38:45.870Z,24.27
2022-11-22T21:44:05.713Z,22.93
2022-11-22T21:46:32.857Z,24.30
2022-11-22T21:49:00.131Z,23.23
2022-11-22T21:51:27.194Z,24.13
2022-11-22T21:53:59.570Z,22.63
2022-11-22T21:56:27.345Z,20.57
2022-11-22T21:58:54.847Z,24.43
2022-11-22T22:01:22.427Z,24.07
2022-11-22T22:03:50.181Z,22.87
2022-11-22T22:06:19.994Z,24.53
2022-11-22T22:08:47.268Z,25.17
2022-11-22T22:11:14.503Z,24.20
2022-11-22T22:13:42.464Z,24.27
2022-11-22T22:16:15.443Z,23.53
2022-11-22T22:18:43.844Z,24.13
2022-11-22T22:21:14.044Z,24.33
2022-11-22T22:23:42.229Z,24.67
2022-11-22T22:26:12.554Z,25.57
2022-11-22T22:28:40.574Z,25.40
2022-11-22T22:31:17.126Z,24.93
2022-11-22T22:33:58.062Z,24.90
2022-11-22T22:36:27.485Z,26.87
2022-11-22T22:38:55.087Z,25.90
2022-11-22T22:41:22.241Z,27.27
2022-11-22T22:43:49.723Z,25.80
2022-11-22T22:46:22.916Z,26.23
2022-11-22T22:48:50.481Z,25.93
2022-11-22T22:51:32.031Z,26.13
2022-11-22T22:54:00.876Z,25.47
2022-11-22T22:56:29.798Z,25.63
2022-11-22T22:58:57.898Z,27.13
2022-11-22T23:01:27.444Z,26.37
2022-11-22T23:03:57.690Z,26.77
2022-11-22T23:06:27.493Z,27.50
2022-11-22T23:08:55.272Z,25.90
2022-11-22T23:11:44.744Z,24.43
2022-11-22T23:14:33.515Z,26.00
2022-11-22T23:17:00.431Z,26.37
2022-11-22T23:19:29.634Z,24.50
2022-11-22T23:21:57.100Z,25.33
2022-11-22T23:24:25.478Z,25.57
2022-11-22T23:26:52.563Z,24.50
2022-11-22T23:29:20.089Z,25.63
2022-11-22T23:31:46.904Z,24.53
2022-11-22T23:34:13.891Z,24.40
2022-11-22T23:36:41.641Z,24.93
2022-11-22T23:39:09.251Z,25.13
2022-11-22T23:41:36.470Z,24.67
2022-11-22T23:44:03.896Z,23.87
2022-11-22T23:46:31.086Z,24.73
2022-11-22T23:49:00.256Z,24.00
2022-11-22T23:51:29.875Z,23.27
2022-11-22T23:53:59.111Z,23.83
2022-11-22T23:56:29.397Z,24.20
2022-11-22T23:58:58.775Z,23.93
